• Join FlightAware (Why Join?)
  • Login
  • US Flag 
03:06PM EST


 

Airport Tracker/Info


-or-


 

Live Flight TrackerFlight Track Log ✈ N240ER ✈ 01-May-2013 ✈ KOMA - KAAO

Flight Track Log - Related Links

Times and Time Zones

All times are in EDT time to prevent confusion due to time zone crossing. See the N240ER flight status page for this flight to view local times or setup timezone preferences in your user account.

Time Position Orientation Groundspeed Altitude Reporting Facility
EDT Latitude Longitude Course Direction KTS MPH feet Rate Location/Type
11:22AM 41.3081 -95.9014 321° Northwest 94 108 1,400  Level Minneapolis Center
11:22AM 41.3150 -95.9089 321° Northwest 101 116 1,800 1,080 Climbing Minneapolis Center
11:23AM 41.3375 -95.9342 320° Northwest 125 144 2,700 1,260 Climbing Minneapolis Center
11:24AM 41.3492 -95.9828 288° West 158 182 4,300 1,440 Climbing Minneapolis Center
11:25AM 41.3228 -96.0175 225° Southwest 161 185 5,500 1,500 Climbing Minneapolis Center
11:26AM 41.2900 -96.0656 228° Southwest 170 196 7,200 1,440 Climbing Minneapolis Center
11:27AM 41.2686 -96.1019 232° Southwest 149 171 8,500 1,200 Climbing Minneapolis Center
11:28AM 41.2433 -96.1222 211° Southwest 125 144 9,700 1,020 Climbing Minneapolis Center
11:29AM 41.2122 -96.1319 193° South 115 132 10,900 1,140 Climbing Minneapolis Center
11:30AM 41.1744 -96.1453 195° South 117 135 12,300 1,140 Climbing Minneapolis Center
11:31AM 41.1444 -96.1550 194° South 113 130 13,300 1,020 Climbing Minneapolis Center
11:32AM 41.1139 -96.1653 194° South 113 130 14,400 1,200 Climbing Minneapolis Center
11:33AM 41.0744 -96.1783 194° South 119 137 15,800 1,200 Climbing Minneapolis Center
11:34AM 41.0414 -96.1894 194° South 121 139 16,900 960 Climbing Minneapolis Center
11:35AM 41.0069 -96.2011 194° South 125 144 17,800 900 Climbing Minneapolis Center
11:36AM 40.9711 -96.2122 193° South 130 150 18,800 960 Climbing Minneapolis Center
11:37AM 40.9344 -96.2244 194° South 134 154 19,800 1,020 Climbing Minneapolis Center
11:38AM 40.8958 -96.2372 194° South 140 161 20,900 1,020 Climbing Minneapolis Center
11:39AM 40.8561 -96.2492 193° South 144 166 21,900 480 Climbing Minneapolis Center
11:40AM 40.8106 -96.2650 195° South 159 183 22,000  Climbing Minneapolis Center
11:41AM 40.7450 -96.2875 195° South 192 221 22,000  Level Minneapolis Center
11:42AM 40.6875 -96.3053 193° South 207 238 22,000  Level Minneapolis Center
11:43AM 40.6303 -96.3236 194° South 211 243 22,000  Level Minneapolis Center
11:44AM 40.5728 -96.3425 194° South 212 244 22,000 480 Level Minneapolis Center
11:45AM 40.5175 -96.3608 194° South 208 239 23,000 900 Climbing Minneapolis Center
11:46AM 40.4711 -96.3750 193° South 183 211 23,900 780 Climbing Minneapolis Center
11:47AM 40.4219 -96.3914 194° South 180 207 24,700 780 Climbing Minneapolis Center
11:48AM 40.3733 -96.4067 193° South 181 208 25,500 600 Climbing Minneapolis Center
11:50AM 40.3214 -96.4222 193° South 186 214 26,000 240 Climbing Minneapolis Center
11:51AM 40.2519 -96.4453 194° South 207 238 26,000  Level Minneapolis Center
11:52AM 40.1908 -96.4653 194° South 221 254 26,000  Level Minneapolis Center
11:53AM 40.1297 -96.4856 194° South 225 259 26,000  Level Minneapolis Center
11:54AM 40.0692 -96.5053 194° South 225 259 26,000  Level Minneapolis Center
11:55AM 40.0083 -96.5247 194° South 225 259 26,000  Level Minneapolis Center
11:56AM 39.9472 -96.5431 193° South 225 259 26,000  Level Minneapolis Center
11:57AM 39.8881 -96.5619 194° South 221 254 26,000  Level Minneapolis Center
11:58AM 39.8281 -96.5811 194° South 221 254 26,000  Level Minneapolis Center
11:59AM 39.7664 -96.5989 192° South 225 259 26,000  Level Kansas City Center
12:00PM 39.6908 -96.6150 189° South 228 262 26,000  Level Kansas City Center
12:01PM 39.6286 -96.6306 191° South 227 261 26,000  Level Kansas City Center
12:02PM 39.5656 -96.6453 190° South 229 264 26,000  Level Kansas City Center
12:03PM 39.4994 -96.6611 190° South 231 266 26,000  Level Kansas City Center
12:04PM 39.4381 -96.6753 190° South 232 267 26,000  Level Kansas City Center
12:05PM 39.3681 -96.6919 190° South 231 266 26,000  Level Kansas City Center
12:06PM 39.3069 -96.7067 191° South 232 267 26,000 -60 Level Kansas City Center
12:07PM 39.2361 -96.7239 191° South 232 267 25,900 -540 Descending Kansas City Center
12:08PM 39.1717 -96.7389 190° South 241 277 25,000 -1,020 Descending Kansas City Center
12:09PM 39.0944 -96.7569 190° South 249 287 23,900 -1,020 Descending Kansas City Center
12:10PM 39.0336 -96.7706 190° South 239 275 23,000 -960 Descending Kansas City Center
12:11PM 38.9783 -96.7819 189° South 220 253 22,000 -1,140 Descending Kansas City Center
12:12PM 38.9297 -96.8078 202° Southwest 198 228 20,700 -1,620 Descending Kansas City Center
12:13PM 38.8822 -96.8561 218° Southwest 184 212 18,700 -1,680 Descending Kansas City Center
12:14PM 38.8350 -96.8819 203° Southwest 195 224 17,300 -1,260 Descending Kansas City Center
12:15PM 38.7772 -96.9000 194° South 206 237 16,200 -1,020 Descending Kansas City Center
12:16PM 38.7231 -96.9172 194° South 208 239 15,200 -1,140 Descending Kansas City Center
12:17PM 38.6647 -96.9356 194° South 194 223 13,900 -1,200 Descending Kansas City Center
12:18PM 38.6139 -96.9514 194° South 182 209 12,800 -1,140 Descending Kansas City Center
12:19PM 38.5633 -96.9672 194° South 178 205 11,600 -1,140 Descending Kansas City Center
12:20PM 38.5125 -96.9839 194° South 180 207 10,500 -1,200 Descending Kansas City Center
12:21PM 38.4658 -96.9967 192° South 177 204 9,300 -1,140 Descending Kansas City Center
12:22PM 38.4214 -97.0125 196° South 174 200 8,200 -1,140 Descending Kansas City Center
12:23PM 38.3783 -97.0242 192° South 172 198 7,200 -1,140 Descending Kansas City Center
12:24PM 38.3356 -97.0392 195° South 160 184 6,100 -1,020 Descending Kansas City Center
12:26PM 38.2883 -97.0556 195° South 164 189 4,900 -1,020 Descending Kansas City Center
12:26PM 38.2378 -97.0708 193° South 172 198 4,000 -480 Descending Kansas City Center
12:28PM 38.1908 -97.0847 193° South 153 176 4,000  Level Kansas City Center
12:29PM 38.1461 -97.0989 194° South 168 193 4,000  Level Kansas City Center
12:30PM 38.0944 -97.1150 194° South 182 209 4,000  Level Kansas City Center
12:31PM 38.0461 -97.1283 192° South 184 212 4,000 -540 Level Kansas City Center
12:32PM 37.9931 -97.1447 194° South 184 212 3,000 -540 Descending Kansas City Center
12:33PM 37.9442 -97.1603 194° South 192 221 3,000  Level Kansas City Center
12:34PM 37.8864 -97.1867 200° South 186 214 3,000  Level Kansas City Center
12:35PM 37.8394 -97.2081 200° South 183 211 3,000 -360 Level Kansas City Center
12:36PM 37.8017 -97.2133 186° South 161 185 2,300 -600 Descending Kansas City Center
12:37PM 37.7706 -97.2183 187° South 137 158 1,800 -360 Descending Kansas City Center
12:38PM 37.7372 -97.2231 186° South 127 146 1,600 -240 Descending Kansas City Center
12:40PM 37.7333 -97.2167 North  Level FlightAware Approximate
12:47PM 37.7476 -97.2211 North  Level Estimated
12:48PM 37.7476 -97.2211 North  Level Estimated
12:49PM 37.7476 -97.2211 North  Level Estimated
12:50PM 37.7476 -97.2211 North  Level Estimated
12:51PM 37.7476 -97.2211 North  Level Estimated
12:52PM 37.7476 -97.2211 North  Level Estimated
12:53PM 37.7476 -97.2211 North  Level Estimated
12:54PM 37.7476 -97.2211 North  Level Estimated